Time;durP1;ratioP1;P1;durP2;ratioP2;P2;SDS_P1;SDS_P2;PMS_P1;PMS_P2;Temp;Humidity;BMP_temperature;BMP_pressure;BME280_temperature;BME280_humidity;BME280_pressure;Samples;Min_cycle;Max_cycle;Signal;HPM_P1;HPM_P2
2022/12/19 00:01:34;;;;;;;70.53;35.00;;;-1.30;99.90;;;;;;5019817;28;20059;-74
2022/12/19 00:04:06;;;;;;;66.90;37.38;;;-1.30;99.90;;;;;;5037872;28;20586;-73
2022/12/19 00:06:36;;;;;;;72.65;36.17;;;-1.30;99.90;;;;;;5032846;28;20076;-73
2022/12/19 00:09:05;;;;;;;70.03;32.25;;;-1.20;99.90;;;;;;5019460;28;20037;-73
2022/12/19 00:11:32;;;;;;;79.03;36.60;;;-1.20;99.90;;;;;;5032363;28;20045;-73
2022/12/19 00:13:59;;;;;;;79.35;36.97;;;-1.10;99.90;;;;;;5036773;28;20045;-73
2022/12/19 00:16:28;;;;;;;71.60;36.80;;;-1.00;99.90;;;;;;5032244;28;20430;-74
2022/12/19 00:18:57;;;;;;;77.53;36.72;;;-0.90;99.90;;;;;;5036574;28;20111;-73
2022/12/19 00:21:29;;;;;;;73.85;36.83;;;-0.90;99.90;;;;;;5035328;28;20119;-73
2022/12/19 00:23:56;;;;;;;74.32;38.28;;;-0.90;99.90;;;;;;5034737;28;20491;-73
2022/12/19 00:26:27;;;;;;;77.03;35.38;;;-0.90;99.90;;;;;;5033137;28;20037;-74
2022/12/19 00:28:59;;;;;;;76.03;36.35;;;-0.90;99.90;;;;;;5017144;28;20499;-73
2022/12/19 00:31:28;;;;;;;68.70;35.55;;;-0.90;99.90;;;;;;5034161;28;20041;-73
2022/12/19 00:33:56;;;;;;;76.18;37.75;;;-0.80;99.90;;;;;;5035694;28;20048;-73
2022/12/19 00:36:26;;;;;;;63.45;32.58;;;-0.90;99.90;;;;;;5033219;28;20494;-73
2022/12/19 00:38:55;;;;;;;70.93;36.40;;;-0.80;99.90;;;;;;5032975;28;20418;-73
2022/12/19 00:41:28;;;;;;;75.82;36.55;;;-0.80;99.90;;;;;;5034495;28;20052;-73
2022/12/19 00:43:57;;;;;;;77.32;36.38;;;-0.80;99.90;;;;;;5033129;28;20260;-74
2022/12/19 00:46:26;;;;;;;78.68;40.78;;;-0.70;99.90;;;;;;5036070;28;20037;-74
2022/12/19 00:48:53;;;;;;;85.25;39.28;;;-0.70;99.90;;;;;;5018263;28;20122;-73
2022/12/19 00:51:23;;;;;;;70.63;35.75;;;-0.60;99.90;;;;;;5033658;28;20517;-74
2022/12/19 00:53:52;;;;;;;66.72;33.85;;;-0.60;99.90;;;;;;5036336;28;20107;-74
2022/12/19 00:56:25;;;;;;;79.18;38.83;;;-0.60;99.90;;;;;;5017207;28;20098;-74
2022/12/19 00:58:53;;;;;;;59.47;30.75;;;-0.60;99.90;;;;;;5029421;28;20045;-74
2022/12/19 01:01:25;;;;;;;75.22;37.72;;;-0.50;99.90;;;;;;5018921;28;20061;-73
2022/12/19 01:03:53;;;;;;;66.60;33.53;;;-0.50;99.90;;;;;;5020994;28;20071;-74
2022/12/19 01:06:41;;;;;;;67.82;34.60;;;-0.60;99.90;;;;;;5034254;28;20045;-73
2022/12/19 01:09:10;;;;;;;75.32;36.55;;;-0.50;99.90;;;;;;5036030;28;20250;-73
2022/12/19 01:14:23;;;;;;;72.22;34.05;;;-0.50;99.90;;;;;;5032135;28;20044;-74
2022/12/19 01:16:51;;;;;;;79.53;37.47;;;-0.60;99.90;;;;;;5034367;28;20039;-73
2022/12/19 01:19:19;;;;;;;70.85;34.72;;;-0.60;99.90;;;;;;5039197;28;20131;-74
2022/12/19 01:21:45;;;;;;;70.80;34.55;;;-0.60;99.90;;;;;;5033422;28;20044;-74
2022/12/19 01:24:13;;;;;;;58.67;31.17;;;-0.60;99.90;;;;;;5032204;28;20040;-73
2022/12/19 01:26:48;;;;;;;70.70;33.42;;;-0.50;99.90;;;;;;5033537;28;20045;-74
2022/12/19 01:29:15;;;;;;;79.00;32.83;;;-0.50;99.90;;;;;;5035305;28;20044;-74
2022/12/19 01:31:42;;;;;;;73.88;36.67;;;-0.50;99.90;;;;;;5050624;28;20047;-74
2022/12/19 01:34:09;;;;;;;75.35;37.53;;;-0.60;99.90;;;;;;5018544;28;20106;-74
2022/12/19 01:36:35;;;;;;;82.63;37.05;;;-0.50;99.90;;;;;;5035536;28;20422;-74
2022/12/19 01:39:06;;;;;;;63.75;32.25;;;-0.50;99.90;;;;;;5037274;28;20049;-74
2022/12/19 01:41:33;;;;;;;72.25;35.65;;;-0.50;99.90;;;;;;5035103;28;20033;-73
2022/12/19 01:44:07;;;;;;;66.78;34.33;;;-0.60;99.90;;;;;;5019453;28;20032;-74
2022/12/19 01:46:44;;;;;;;65.35;34.25;;;-0.50;99.90;;;;;;5029949;28;20045;-73
2022/12/19 01:49:17;;;;;;;72.35;35.80;;;-0.60;99.90;;;;;;5035488;28;20056;-74
2022/12/19 01:51:49;;;;;;;77.90;36.03;;;-0.50;99.90;;;;;;5032766;28;20057;-74
2022/12/19 01:54:20;;;;;;;69.32;33.28;;;-0.60;99.90;;;;;;5031564;28;20041;-74
2022/12/19 01:56:54;;;;;;;66.60;31.40;;;-0.60;99.90;;;;;;5016243;28;20052;-74
2022/12/19 01:59:27;;;;;;;66.22;30.40;;;-0.50;99.90;;;;;;5018300;28;20048;-73
2022/12/19 02:02:01;;;;;;;61.92;31.05;;;-0.50;99.90;;;;;;5033195;28;20107;-73
2022/12/19 02:04:29;;;;;;;64.35;30.63;;;-0.50;99.90;;;;;;5034161;28;20037;-74
2022/12/19 02:07:02;;;;;;;64.90;33.13;;;-0.50;99.90;;;;;;5032575;28;20037;-73
2022/12/19 02:09:44;;;;;;;67.82;34.03;;;-0.50;99.90;;;;;;5033121;28;20299;-73
2022/12/19 02:12:12;;;;;;;73.47;33.80;;;-0.50;99.90;;;;;;5021489;28;20123;-73
2022/12/19 02:14:40;;;;;;;70.50;37.03;;;-0.50;99.90;;;;;;5031936;28;20584;-74
2022/12/19 02:17:42;;;;;;;84.18;38.40;;;-0.40;99.90;;;;;;5038144;28;20091;-73
2022/12/19 02:20:37;;;;;;;71.88;36.25;;;-0.30;99.90;;;;;;4938262;28;20054;-74
2022/12/19 02:23:18;;;;;;;63.72;31.35;;;-0.40;99.90;;;;;;5017296;28;20056;-73
2022/12/19 02:25:58;;;;;;;70.57;34.00;;;-0.50;99.90;;;;;;5017116;28;20037;-74
2022/12/19 02:28:46;;;;;;;76.57;36.17;;;-0.50;99.90;;;;;;5046749;28;20200;-74
2022/12/19 02:31:31;;;;;;;78.90;37.47;;;-0.50;99.90;;;;;;5030678;28;20102;-74
2022/12/19 02:34:05;;;;;;;;;;;-0.50;99.90;;;;;;5035306;28;20044;-73
2022/12/19 02:36:52;;;;;;;62.53;31.60;;;-0.50;99.90;;;;;;5031822;28;20339;-73
2022/12/19 02:39:44;;;;;;;68.40;33.53;;;-0.50;99.90;;;;;;5034449;28;20126;-74
2022/12/19 02:42:18;;;;;;;67.50;34.10;;;-0.60;99.90;;;;;;5035895;28;20060;-73
2022/12/19 02:44:50;;;;;;;66.45;32.40;;;-0.60;99.90;;;;;;5021609;28;20044;-73
2022/12/19 02:47:20;;;;;;;70.38;33.03;;;-0.60;99.90;;;;;;5067063;28;20064;-76
2022/12/19 02:49:47;;;;;;;69.88;33.05;;;-0.70;99.90;;;;;;5018791;28;20056;-74
2022/12/19 02:52:18;;;;;;;62.83;31.13;;;-0.70;99.90;;;;;;5033889;28;20669;-73
2022/12/19 02:54:49;;;;;;;59.75;32.03;;;-0.70;99.90;;;;;;5038567;28;20033;-73
2022/12/19 02:57:41;;;;;;;62.95;30.35;;;-0.70;99.90;;;;;;5031543;28;20380;-73
2022/12/19 03:00:14;;;;;;;76.07;37.35;;;-0.70;99.90;;;;;;5002312;28;20368;-74
2022/12/19 03:02:57;;;;;;;66.90;34.33;;;-0.70;99.90;;;;;;5019472;28;20033;-74
2022/12/19 03:05:32;;;;;;;74.22;33.13;;;-0.80;99.90;;;;;;5017613;28;20127;-74
2022/12/19 03:08:07;;;;;;;62.17;32.72;;;-0.80;99.90;;;;;;5020998;28;20526;-73
2022/12/19 03:10:45;;;;;;;68.68;35.78;;;-0.80;99.90;;;;;;5018225;28;20536;-76
2022/12/19 03:13:30;;;;;;;58.47;32.25;;;-0.80;99.90;;;;;;5037539;28;20495;-74
2022/12/19 03:16:00;;;;;;;69.95;33.28;;;-0.90;99.90;;;;;;5021690;28;20108;-72
2022/12/19 03:18:27;;;;;;;76.65;36.35;;;-0.80;99.90;;;;;;5036548;28;20128;-74
2022/12/19 03:21:07;;;;;;;84.00;38.70;;;-0.90;99.90;;;;;;5019204;28;20040;-74
2022/12/19 03:23:34;;;;;;;75.13;38.25;;;-0.80;99.90;;;;;;5020056;28;20051;-74
2022/12/19 03:26:11;;;;;;;81.07;36.05;;;-0.90;99.90;;;;;;5037269;28;20072;-74
2022/12/19 03:28:43;;;;;;;70.20;33.90;;;-0.80;99.90;;;;;;5038357;28;20532;-74
2022/12/19 03:31:12;;;;;;;81.50;35.92;;;-0.80;99.90;;;;;;5020214;28;20506;-74
2022/12/19 03:33:42;;;;;;;80.80;37.28;;;-0.80;99.90;;;;;;5037160;28;20091;-73
2022/12/19 03:36:20;;;;;;;68.07;34.70;;;-0.80;99.90;;;;;;5038741;28;20045;-74
2022/12/19 03:38:48;;;;;;;76.85;37.38;;;-0.90;99.90;;;;;;5036024;28;20060;-73
2022/12/19 03:43:07;;;;;;;82.25;38.95;;;-0.80;99.90;;;;;;5021260;28;20074;-74
2022/12/19 03:44:08;;;;;;;67.50;34.85;;;-0.80;99.90;;;;;;5037908;28;20049;-74
2022/12/19 03:46:40;;;;;;;80.40;37.50;;;-0.80;99.90;;;;;;5017625;28;20084;-73
2022/12/19 03:49:07;;;;;;;67.60;35.95;;;-0.80;99.90;;;;;;5036163;28;20499;-74
2022/12/19 03:51:44;;;;;;;76.75;36.22;;;-0.80;99.90;;;;;;5034846;28;20102;-74
2022/12/19 03:54:23;;;;;;;75.78;34.80;;;-0.80;99.90;;;;;;5037336;28;20131;-74
2022/12/19 03:57:08;;;;;;;80.70;41.00;;;-0.80;99.90;;;;;;5038715;28;20067;-73
2022/12/19 03:59:56;;;;;;;87.27;38.07;;;-0.70;99.90;;;;;;5018251;23;20530;-74
2022/12/19 04:02:24;;;;;;;83.70;38.67;;;-0.70;99.90;;;;;;4978999;28;20794;-74
2022/12/19 04:05:06;;;;;;;85.13;38.38;;;-0.80;99.90;;;;;;5002233;28;20075;-74
2022/12/19 04:07:34;;;;;;;88.78;41.67;;;-0.80;99.90;;;;;;5018144;28;20063;-73
2022/12/19 04:10:10;;;;;;;92.20;42.25;;;-0.80;99.90;;;;;;5020286;28;20044;-73
2022/12/19 04:12:41;;;;;;;83.35;35.65;;;-0.80;99.90;;;;;;5010716;28;20521;-74
2022/12/19 04:15:12;;;;;;;91.75;40.13;;;-0.80;99.90;;;;;;5003471;28;20262;-75
2022/12/19 04:17:45;;;;;;;88.40;40.83;;;-0.90;99.90;;;;;;5008882;28;20580;-72
2022/12/19 04:20:15;;;;;;;95.85;42.55;;;-0.90;99.90;;;;;;5010548;28;20049;-73
2022/12/19 04:23:06;;;;;;;78.30;37.75;;;-0.90;99.90;;;;;;5017285;28;20131;-73
2022/12/19 04:25:46;;;;;;;94.55;40.30;;;-0.90;99.90;;;;;;5012076;28;20538;-74
2022/12/19 04:28:19;;;;;;;91.00;38.95;;;-0.90;99.90;;;;;;5020976;28;20520;-73
2022/12/19 04:30:47;;;;;;;77.88;35.08;;;-0.80;99.90;;;;;;5017540;28;20136;-73
2022/12/19 04:33:14;;;;;;;95.10;42.53;;;-0.90;99.90;;;;;;5015632;28;20692;-74
2022/12/19 04:35:41;;;;;;;88.55;42.10;;;-0.90;99.90;;;;;;5017825;28;20041;-75
2022/12/19 04:38:07;;;;;;;83.40;40.22;;;-0.90;99.90;;;;;;5021903;28;20437;-73
2022/12/19 04:40:35;;;;;;;72.90;33.10;;;-0.90;99.90;;;;;;5017110;28;20155;-73
2022/12/19 04:43:07;;;;;;;88.07;39.03;;;-0.80;99.90;;;;;;5020504;28;20122;-75
2022/12/19 04:45:34;;;;;;;69.28;32.65;;;-0.80;99.90;;;;;;5017555;28;20052;-74
2022/12/19 04:48:02;;;;;;;76.43;34.47;;;-0.80;99.90;;;;;;5022267;28;20076;-74
2022/12/19 04:50:28;;;;;;;66.97;32.03;;;-0.80;99.90;;;;;;5004129;28;20110;-73
2022/12/19 04:52:58;;;;;;;76.18;36.08;;;-0.80;99.90;;;;;;5023838;28;20064;-75
2022/12/19 04:55:25;;;;;;;62.70;30.27;;;-0.80;99.90;;;;;;5020784;28;20041;-74
2022/12/19 04:57:52;;;;;;;85.93;39.17;;;-0.70;99.90;;;;;;5023625;28;20033;-74
2022/12/19 05:00:19;;;;;;;87.15;37.85;;;-0.70;99.90;;;;;;5019780;28;20348;-75
2022/12/19 05:02:45;;;;;;;81.75;40.10;;;-0.60;99.90;;;;;;5021522;28;20047;-74
2022/12/19 05:05:13;;;;;;;78.13;37.38;;;-0.50;99.90;;;;;;5023488;28;20044;-73
2022/12/19 05:07:39;;;;;;;74.95;37.10;;;-0.40;99.90;;;;;;5018193;28;20041;-74
2022/12/19 05:10:07;;;;;;;67.60;33.72;;;-0.40;99.90;;;;;;5020941;28;20535;-73
2022/12/19 05:12:33;;;;;;;78.28;34.13;;;-0.20;99.90;;;;;;5015768;28;20064;-73
2022/12/19 05:15:00;;;;;;;66.82;32.83;;;-0.20;99.90;;;;;;5019855;28;20045;-72
2022/12/19 05:17:27;;;;;;;74.47;35.92;;;-0.10;99.90;;;;;;5018789;28;20047;-73
2022/12/19 05:19:53;;;;;;;90.22;39.38;;;0.00;99.90;;;;;;5020398;28;20259;-74
2022/12/19 05:22:20;;;;;;;81.32;36.60;;;0.10;99.90;;;;;;5021171;28;20525;-73
2022/12/19 05:24:47;;;;;;;85.45;37.30;;;0.10;99.90;;;;;;5020578;28;20041;-73
2022/12/19 05:27:13;;;;;;;78.97;36.28;;;0.20;99.90;;;;;;5020117;28;20260;-74
2022/12/19 05:29:40;;;;;;;81.90;38.05;;;0.20;99.90;;;;;;5014651;28;20425;-73
2022/12/19 05:32:07;;;;;;;81.13;39.75;;;0.20;99.90;;;;;;5017973;28;20132;-73
2022/12/19 05:34:34;;;;;;;85.70;36.45;;;0.20;99.90;;;;;;5018909;28;20048;-75
2022/12/19 05:37:02;;;;;;;73.55;34.17;;;0.20;99.90;;;;;;5021025;28;20041;-72
2022/12/19 05:39:29;;;;;;;88.15;38.90;;;0.20;99.90;;;;;;5019314;28;20438;-74
2022/12/19 05:41:56;;;;;;;83.80;38.97;;;0.30;99.90;;;;;;5016431;28;20045;-74
2022/12/19 05:44:23;;;;;;;84.32;38.70;;;0.20;99.90;;;;;;5022339;28;20055;-73
2022/12/19 05:46:51;;;;;;;77.85;35.78;;;0.30;99.90;;;;;;5020029;28;20715;-74
2022/12/19 05:49:18;;;;;;;71.50;33.03;;;0.20;99.90;;;;;;5020134;28;20057;-73
2022/12/19 05:51:48;;;;;;;83.97;36.42;;;0.20;99.90;;;;;;5017219;28;20517;-73
2022/12/19 05:54:14;;;;;;;87.00;39.08;;;0.10;99.90;;;;;;5020015;28;20114;-72
2022/12/19 05:56:41;;;;;;;76.55;34.40;;;0.20;99.90;;;;;;5020747;28;20048;-72
2022/12/19 05:59:09;;;;;;;57.70;29.42;;;0.20;99.90;;;;;;5013167;28;20045;-73
2022/12/19 06:01:35;;;;;;;88.50;40.08;;;0.20;99.90;;;;;;5014331;28;20100;-72
2022/12/19 06:04:03;;;;;;;85.43;38.05;;;0.10;99.90;;;;;;5018412;28;20052;-71
2022/12/19 06:06:29;;;;;;;69.07;35.53;;;0.10;99.90;;;;;;5004493;28;20426;-72
2022/12/19 06:08:58;;;;;;;91.97;40.30;;;0.10;99.90;;;;;;5001701;28;20049;-72
2022/12/19 06:11:25;;;;;;;80.43;38.22;;;0.20;99.90;;;;;;5002139;28;20044;-73
2022/12/19 06:13:53;;;;;;;78.88;32.88;;;0.10;99.90;;;;;;5017642;28;20664;-71
2022/12/19 06:16:22;;;;;;;88.60;38.05;;;0.10;99.90;;;;;;5021852;28;20024;-73
2022/12/19 06:18:49;;;;;;;97.20;42.72;;;0.10;99.90;;;;;;5021425;28;20037;-72
2022/12/19 06:21:19;;;;;;;82.72;39.20;;;0.10;99.90;;;;;;5019141;28;20044;-73
2022/12/19 06:23:46;;;;;;;77.53;36.40;;;0.10;99.90;;;;;;5016226;28;20049;-70
2022/12/19 06:26:15;;;;;;;77.97;35.28;;;0.10;99.90;;;;;;5025884;28;20045;-72
2022/12/19 06:28:47;;;;;;;84.63;36.00;;;0.00;99.90;;;;;;5020900;28;20056;-72
2022/12/19 06:31:15;;;;;;;62.58;31.95;;;0.10;99.90;;;;;;5017136;28;20069;-72
2022/12/19 06:33:42;;;;;;;90.60;38.47;;;0.00;99.90;;;;;;5019634;28;20521;-73
2022/12/19 06:36:13;;;;;;;59.78;29.73;;;0.00;99.90;;;;;;5021631;28;20049;-73
2022/12/19 06:38:40;;;;;;;93.53;40.38;;;0.10;99.90;;;;;;5018442;28;20041;-73
2022/12/19 06:44:03;;;;;;;98.45;43.78;;;0.20;99.90;;;;;;5016587;28;20071;-74
2022/12/19 06:46:29;;;;;;;;;;;0.20;99.90;;;;;;5014989;28;20072;-73
2022/12/19 06:48:56;;;;;;;106.25;44.13;;;0.20;99.90;;;;;;5019293;28;20158;-73
2022/12/19 06:51:23;;;;;;;99.25;41.75;;;0.30;99.90;;;;;;5020357;28;20041;-74
2022/12/19 06:53:52;;;;;;;79.50;36.30;;;0.30;99.90;;;;;;5020714;28;20089;-72
2022/12/19 06:56:19;;;;;;;111.28;45.28;;;0.30;99.90;;;;;;5021326;28;20037;-73
2022/12/19 06:58:46;;;;;;;101.60;42.28;;;0.40;99.90;;;;;;5023098;28;20068;-73
2022/12/19 07:01:18;;;;;;;96.40;39.10;;;0.40;99.90;;;;;;5019408;28;20133;-74
2022/12/19 07:03:47;;;;;;;106.78;43.55;;;0.50;99.90;;;;;;5020875;28;20124;-73
2022/12/19 07:06:14;;;;;;;85.55;38.03;;;0.60;99.90;;;;;;5026112;28;20057;-74
2022/12/19 07:08:41;;;;;;;101.65;42.33;;;0.60;99.90;;;;;;5001857;28;20041;-72
2022/12/19 07:11:08;;;;;;;95.55;40.38;;;0.60;99.90;;;;;;5020093;28;20190;-73
2022/12/19 07:13:34;;;;;;;97.30;41.20;;;0.60;99.90;;;;;;5020769;28;20132;-72
2022/12/19 07:16:03;;;;;;;93.18;40.20;;;0.70;99.90;;;;;;5017059;28;20637;-73
2022/12/19 07:18:33;;;;;;;79.53;34.42;;;0.70;99.90;;;;;;5019076;28;20045;-74
2022/12/19 07:21:00;;;;;;;113.88;48.97;;;0.70;99.90;;;;;;5014536;28;20041;-74
2022/12/19 07:23:28;;;;;;;101.93;42.75;;;0.70;99.90;;;;;;5016216;28;20045;-73
2022/12/19 07:25:55;;;;;;;98.93;43.05;;;0.80;99.90;;;;;;5019476;28;20329;-75
2022/12/19 07:28:22;;;;;;;99.13;44.33;;;0.80;99.90;;;;;;5022671;28;20722;-76
2022/12/19 07:30:49;;;;;;;92.78;37.15;;;0.80;99.90;;;;;;5017077;28;20049;-76
2022/12/19 07:33:15;;;;;;;70.15;29.67;;;0.80;99.90;;;;;;5006797;28;20051;-76
2022/12/19 07:35:47;;;;;;;90.38;35.67;;;0.90;99.90;;;;;;5020394;28;20225;-76
2022/12/19 07:38:14;;;;;;;94.43;38.90;;;0.90;99.90;;;;;;5022546;28;20131;-75
2022/12/19 07:40:41;;;;;;;97.45;39.95;;;0.90;99.90;;;;;;5016922;28;20036;-76
2022/12/19 07:43:08;;;;;;;97.47;41.10;;;0.90;99.90;;;;;;5020465;28;21319;-75
2022/12/19 07:45:36;;;;;;;93.80;40.83;;;0.80;99.90;;;;;;5019036;28;20041;-76
2022/12/19 07:48:05;;;;;;;93.03;41.38;;;0.90;99.90;;;;;;5023685;28;20414;-76
2022/12/19 07:50:33;;;;;;;88.22;38.63;;;0.90;99.90;;;;;;5018750;28;20099;-75
2022/12/19 07:52:59;;;;;;;87.90;37.20;;;0.90;99.90;;;;;;5017088;28;20033;-75
2022/12/19 07:55:27;;;;;;;86.45;37.47;;;0.90;99.90;;;;;;5019588;28;20051;-76
2022/12/19 07:57:54;;;;;;;100.15;42.80;;;1.00;99.90;;;;;;5023401;28;20041;-75
2022/12/19 08:00:21;;;;;;;90.68;36.38;;;1.00;99.90;;;;;;5023275;28;20041;-74
2022/12/19 08:02:48;;;;;;;86.93;38.50;;;1.00;99.90;;;;;;5026244;28;20141;-76
2022/12/19 08:05:15;;;;;;;83.72;37.80;;;1.00;99.90;;;;;;5018838;28;20563;-76
2022/12/19 08:07:42;;;;;;;78.97;35.53;;;1.00;99.90;;;;;;5018108;28;20056;-75
2022/12/19 08:10:11;;;;;;;83.57;35.92;;;1.10;99.90;;;;;;5020832;28;21212;-77
2022/12/19 08:12:38;;;;;;;84.93;37.00;;;1.10;99.90;;;;;;5017557;28;20505;-76
2022/12/19 08:15:05;;;;;;;87.00;39.70;;;1.10;99.90;;;;;;5020500;28;20453;-76
2022/12/19 08:17:34;;;;;;;89.30;36.45;;;1.20;99.90;;;;;;5022852;28;20266;-76
2022/12/19 08:20:01;;;;;;;71.18;31.75;;;1.20;99.90;;;;;;5003094;28;20523;-76
2022/12/19 08:22:30;;;;;;;73.55;32.20;;;1.30;99.90;;;;;;5016899;28;20312;-75
2022/12/19 08:24:56;;;;;;;67.35;30.23;;;1.30;99.90;;;;;;5002930;28;20564;-76
2022/12/19 08:27:24;;;;;;;71.00;31.58;;;1.40;99.90;;;;;;5017878;28;20051;-76
2022/12/19 08:29:51;;;;;;;76.85;34.67;;;1.40;99.90;;;;;;5013981;28;20069;-76
2022/12/19 08:32:19;;;;;;;72.57;31.55;;;1.40;99.90;;;;;;5023881;28;20044;-77
2022/12/19 08:34:48;;;;;;;64.75;32.03;;;1.40;99.90;;;;;;5021627;28;20040;-76
2022/12/19 08:37:15;;;;;;;64.80;27.88;;;1.50;99.90;;;;;;5023608;28;20037;-75
2022/12/19 08:39:42;;;;;;;68.85;31.92;;;1.50;99.90;;;;;;5017924;28;20468;-76
2022/12/19 08:42:09;;;;;;;64.07;29.20;;;1.50;99.90;;;;;;5001710;28;20480;-75
2022/12/19 08:44:35;;;;;;;66.82;30.08;;;1.60;99.90;;;;;;5017823;28;20102;-77
2022/12/19 08:47:02;;;;;;;56.63;30.15;;;1.60;99.90;;;;;;5017934;28;20061;-77
2022/12/19 08:49:29;;;;;;;63.92;28.73;;;1.60;99.90;;;;;;5019865;28;20053;-77
2022/12/19 08:51:56;;;;;;;60.78;28.88;;;1.60;99.90;;;;;;5021008;28;20504;-77
2022/12/19 08:54:23;;;;;;;62.33;27.45;;;1.70;99.90;;;;;;5017058;28;20106;-77
2022/12/19 08:56:50;;;;;;;63.55;27.60;;;1.70;99.90;;;;;;5024176;28;20045;-78
2022/12/19 08:59:17;;;;;;;61.58;31.38;;;1.80;99.90;;;;;;5023478;28;20045;-79
2022/12/19 09:01:56;;;;;;;45.92;24.13;;;1.80;99.90;;;;;;5021792;28;20049;-76
2022/12/19 09:04:23;;;;;;;67.00;29.85;;;1.80;99.90;;;;;;5000704;28;20050;-76
2022/12/19 09:07:10;;;;;;;51.72;28.80;;;1.90;99.90;;;;;;5015922;28;20472;-76
2022/12/19 09:09:41;;;;;;;60.10;29.92;;;1.80;99.90;;;;;;5014513;28;20127;-77
2022/12/19 09:12:08;;;;;;;55.20;28.00;;;1.80;99.90;;;;;;5018568;28;20053;-76
2022/12/19 09:14:35;;;;;;;128.18;60.65;;;1.80;99.90;;;;;;5014877;28;20049;-76
2022/12/19 09:17:02;;;;;;;112.35;67.90;;;1.80;99.90;;;;;;5013510;28;20683;-78
2022/12/19 09:19:30;;;;;;;109.43;52.53;;;1.90;99.90;;;;;;5015333;28;20508;-76
2022/12/19 09:21:57;;;;;;;97.53;48.80;;;1.90;99.90;;;;;;5017985;28;20418;-75
2022/12/19 09:24:25;;;;;;;107.00;56.30;;;1.90;99.90;;;;;;5018274;28;20037;-77
2022/12/19 09:26:51;;;;;;;57.67;30.67;;;2.00;99.90;;;;;;5025840;28;20037;-79
2022/12/19 09:29:18;;;;;;;66.05;37.38;;;2.00;99.90;;;;;;5047012;28;20087;-78
2022/12/19 09:31:49;;;;;;;55.83;31.45;;;2.10;99.90;;;;;;5042872;28;20352;-76
2022/12/19 09:34:24;;;;;;;58.45;33.22;;;2.20;99.90;;;;;;5041982;28;20107;-77
2022/12/19 09:37:05;;;;;;;55.55;29.40;;;2.20;99.90;;;;;;5038773;28;20049;-79
2022/12/19 09:39:33;;;;;;;61.90;32.85;;;2.20;99.90;;;;;;5020597;28;20036;-78
2022/12/19 09:42:05;;;;;;;78.10;44.38;;;2.20;99.90;;;;;;5023644;28;20040;-76
2022/12/19 09:44:42;;;;;;;79.18;42.47;;;2.20;99.90;;;;;;5016678;28;20575;-78
2022/12/19 09:47:31;;;;;;;97.85;52.03;;;2.20;99.90;;;;;;5022809;28;20036;-76
2022/12/19 09:50:00;;;;;;;85.75;50.25;;;2.30;99.90;;;;;;5019433;28;20068;-76
2022/12/19 09:52:37;;;;;;;63.25;34.42;;;2.30;99.90;;;;;;5017729;28;20055;-76
2022/12/19 09:55:10;;;;;;;60.42;35.45;;;2.30;99.90;;;;;;5023344;28;20049;-78
2022/12/19 09:57:43;;;;;;;65.20;34.00;;;2.30;99.90;;;;;;5021588;28;20743;-79
2022/12/19 10:00:14;;;;;;;57.40;31.92;;;2.40;99.90;;;;;;5047145;23;20136;-71
2022/12/19 10:02:58;;;;;;;61.10;30.52;;;2.30;99.90;;;;;;5026955;28;20061;-72
2022/12/19 10:05:49;;;;;;;62.17;30.20;;;2.40;99.90;;;;;;5026349;28;20504;-72
2022/12/19 10:08:42;;;;;;;54.20;30.23;;;2.40;99.90;;;;;;5034469;28;20039;-71
2022/12/19 10:12:02;;;;;;;70.75;34.13;;;2.40;99.90;;;;;;5032545;28;20534;-73
2022/12/19 10:14:59;;;;;;;65.53;34.58;;;2.40;99.90;;;;;;5036123;28;20091;-73
2022/12/19 10:17:29;;;;;;;72.60;35.80;;;2.40;99.90;;;;;;5034035;28;20044;-71
2022/12/19 10:20:15;;;;;;;68.60;35.00;;;2.50;99.90;;;;;;5036349;28;20037;-72
2022/12/19 10:22:55;;;;;;;67.78;35.70;;;2.50;99.90;;;;;;5035545;28;20071;-72
2022/12/19 10:25:31;;;;;;;73.30;38.72;;;2.50;99.90;;;;;;5035064;28;20061;-72
2022/12/19 10:28:07;;;;;;;81.75;42.03;;;2.50;99.90;;;;;;5033923;28;20045;-72
2022/12/19 10:30:46;;;;;;;85.70;44.38;;;2.60;99.90;;;;;;5034627;28;20622;-72
2022/12/19 10:33:33;;;;;;;84.40;43.92;;;2.50;99.90;;;;;;5036137;28;20044;-72
2022/12/19 10:36:00;;;;;;;80.40;38.67;;;2.60;99.90;;;;;;5035432;28;20049;-74
2022/12/19 10:38:31;;;;;;;87.47;43.00;;;2.60;99.90;;;;;;5031784;28;20709;-72
2022/12/19 10:41:20;;;;;;;79.78;40.72;;;2.50;99.90;;;;;;5037659;28;20400;-72
2022/12/19 10:43:56;;;;;;;89.20;41.33;;;2.50;99.90;;;;;;5036909;28;20132;-71
2022/12/19 10:46:46;;;;;;;88.57;41.15;;;2.50;99.90;;;;;;5015431;28;20033;-73
2022/12/19 10:49:21;;;;;;;79.57;40.63;;;2.50;99.90;;;;;;5037554;28;20045;-71
2022/12/19 10:52:02;;;;;;;92.72;43.63;;;2.50;99.90;;;;;;5038713;28;20063;-72
2022/12/19 10:54:38;;;;;;;94.47;44.22;;;2.40;99.90;;;;;;5034313;28;20110;-72
2022/12/19 10:57:20;;;;;;;90.47;43.03;;;2.30;99.90;;;;;;5037018;28;20049;-73
2022/12/19 10:59:58;;;;;;;93.03;42.17;;;2.30;99.90;;;;;;5035278;28;20384;-72
2022/12/19 11:02:37;;;;;;;101.40;45.15;;;2.30;99.90;;;;;;5048478;28;20041;-71
2022/12/19 11:05:26;;;;;;;91.00;41.70;;;2.40;99.90;;;;;;5038594;28;20410;-71
2022/12/19 11:08:06;;;;;;;88.53;44.05;;;2.40;99.90;;;;;;5038940;28;20056;-72
2022/12/19 11:10:38;;;;;;;88.45;44.35;;;2.40;99.90;;;;;;5033015;28;20045;-72
2022/12/19 11:13:37;;;;;;;92.28;43.80;;;2.40;99.90;;;;;;5036514;28;20045;-72
2022/12/19 11:16:34;;;;;;;97.63;43.40;;;2.40;99.90;;;;;;5033458;28;20629;-74
2022/12/19 11:19:21;;;;;;;87.65;45.17;;;2.40;99.90;;;;;;5034641;28;20529;-72
2022/12/19 11:22:24;;;;;;;99.50;45.17;;;2.50;99.90;;;;;;5035004;28;20037;-73
2022/12/19 11:25:16;;;;;;;91.38;43.25;;;2.50;99.90;;;;;;5036672;28;20044;-71
2022/12/19 11:28:31;;;;;;;91.80;41.80;;;2.50;99.90;;;;;;5033965;28;20041;-71
2022/12/19 11:31:18;;;;;;;103.80;51.97;;;2.60;99.90;;;;;;5035985;28;20044;-72
2022/12/19 11:34:12;;;;;;;105.25;48.20;;;2.60;99.90;;;;;;5037456;28;20037;-73
2022/12/19 11:36:47;;;;;;;140.07;65.63;;;2.70;99.90;;;;;;5035429;28;20271;-71
2022/12/19 11:39:32;;;;;;;108.55;49.90;;;2.70;99.90;;;;;;5037869;28;21017;-73
2022/12/19 11:42:19;;;;;;;221.90;98.50;;;2.70;99.90;;;;;;5035214;28;20045;-72
2022/12/19 11:45:13;;;;;;;165.73;75.40;;;2.70;99.90;;;;;;5016227;28;20364;-72
2022/12/19 11:47:47;;;;;;;105.22;52.17;;;2.80;99.90;;;;;;5034279;28;20055;-72
2022/12/19 11:50:30;;;;;;;124.10;59.23;;;2.80;99.90;;;;;;5034602;28;20041;-72
2022/12/19 11:53:27;;;;;;;169.02;90.90;;;2.90;99.90;;;;;;5034723;28;20455;-72
2022/12/19 11:56:07;;;;;;;112.82;56.38;;;2.90;99.90;;;;;;5033538;28;20095;-72
2022/12/19 11:58:49;;;;;;;101.90;50.17;;;3.00;99.90;;;;;;5035304;28;20040;-72
2022/12/19 12:01:38;;;;;;;110.73;55.67;;;3.00;99.90;;;;;;5033745;28;20044;-74
2022/12/19 12:04:21;;;;;;;105.07;51.67;;;3.00;99.90;;;;;;5035338;28;20325;-72
2022/12/19 12:06:51;;;;;;;100.53;48.38;;;3.00;99.90;;;;;;5034838;28;20598;-72
2022/12/19 12:09:30;;;;;;;126.15;59.25;;;2.90;99.90;;;;;;5036878;28;20403;-72
2022/12/19 12:12:31;;;;;;;170.75;84.90;;;2.90;99.90;;;;;;5033492;28;20037;-71
2022/12/19 12:15:40;;;;;;;102.65;47.92;;;2.80;99.90;;;;;;5024014;28;20095;-74
2022/12/19 12:18:54;;;;;;;91.78;43.80;;;2.80;99.90;;;;;;5030663;28;20036;-71
2022/12/19 12:22:28;;;;;;;102.07;47.22;;;2.80;99.90;;;;;;5033538;28;20044;-72
2022/12/19 12:25:29;;;;;;;224.07;116.43;;;2.70;99.90;;;;;;4998570;28;20112;-73
2022/12/19 12:28:19;;;;;;;98.50;47.53;;;2.80;99.90;;;;;;5036289;28;20526;-72
2022/12/19 12:31:34;;;;;;;106.43;49.28;;;2.90;99.90;;;;;;5032805;28;20045;-72
2022/12/19 12:34:46;;;;;;;119.35;57.60;;;2.90;99.90;;;;;;5034096;28;20048;-71
2022/12/19 12:37:53;;;;;;;118.22;53.83;;;3.00;99.90;;;;;;5032975;28;20103;-72
2022/12/19 12:41:03;;;;;;;106.45;55.08;;;3.10;99.90;;;;;;5040428;28;20925;-74
2022/12/19 12:43:57;;;;;;;156.38;78.93;;;3.10;99.90;;;;;;5033486;28;20044;-74
2022/12/19 12:46:30;;;;;;;111.93;52.45;;;3.20;99.90;;;;;;5032122;28;20494;-74
2022/12/19 12:49:03;;;;;;;100.72;52.10;;;3.20;99.90;;;;;;5031837;28;20048;-75
2022/12/19 12:51:32;;;;;;;104.63;54.15;;;3.20;99.90;;;;;;5032351;28;20074;-75
2022/12/19 12:54:06;;;;;;;106.18;51.90;;;3.20;99.90;;;;;;5034237;28;20079;-73
2022/12/19 12:56:35;;;;;;;114.28;55.53;;;3.20;99.90;;;;;;5035118;28;20044;-73
2022/12/19 12:59:05;;;;;;;116.38;54.47;;;3.20;99.90;;;;;;5031428;28;20037;-75
2022/12/19 13:01:38;;;;;;;105.05;50.55;;;3.10;99.90;;;;;;5034096;28;20052;-74
2022/12/19 13:04:19;;;;;;;128.90;61.35;;;3.20;99.90;;;;;;5035984;28;20064;-72
2022/12/19 13:06:49;;;;;;;101.07;52.50;;;3.20;99.90;;;;;;5034629;28;20376;-74
2022/12/19 13:09:23;;;;;;;279.50;146.82;;;3.20;99.90;;;;;;5035536;28;20041;-72
2022/12/19 13:14:44;;;;;;;106.68;53.90;;;3.30;99.90;;;;;;5034351;28;20052;-73